Aviation Digital Data Service (ADDS)

Output produced by TAFs form (0844 UTC 22 February 2018)
found at http://www.aviationweather.gov/adds/tafs/
 
KCHS 220756Z 18006KT 8SM MIFG CLR 19/18 A3042 RMK AO2 SLP300 T01890183
KCHS 220820Z 2208/2306 15005KT 6SM MIFG SCT020 
     FM221030 VRB03KT 4SM BR SCT006 
     TEMPO 2211/2213 2SM BR SCT002 
     FM221330 18005KT 5SM BR BKN015 
     FM221430 19006KT P6SM SKC 
     FM222000 17010KT P6SM SKC 
     FM230300 18004KT P6SM SKC